sensor_id;sensor_type;location;lat;lon;timestamp;P1;durP1;ratioP1;P2;durP2;ratioP2
52564;SDS011;38460;53.106;7.004;2023-04-25T00:01:22;17.33;;;4.57;;
52564;SDS011;38460;53.106;7.004;2023-04-25T00:03:48;13.98;;;3.97;;
52564;SDS011;38460;53.106;7.004;2023-04-25T00:06:13;14.95;;;5.55;;
52564;SDS011;38460;53.106;7.004;2023-04-25T00:08:40;14.50;;;4.97;;
52564;SDS011;38460;53.106;7.004;2023-04-25T00:11:06;15.98;;;4.32;;
52564;SDS011;38460;53.106;7.004;2023-04-25T00:13:32;12.30;;;3.92;;
52564;SDS011;38460;53.106;7.004;2023-04-25T00:15:58;17.33;;;4.50;;
52564;SDS011;38460;53.106;7.004;2023-04-25T00:18:25;16.40;;;5.00;;
52564;SDS011;38460;53.106;7.004;2023-04-25T00:20:54;12.57;;;4.55;;
52564;SDS011;38460;53.106;7.004;2023-04-25T00:23:20;15.88;;;4.38;;
52564;SDS011;38460;53.106;7.004;2023-04-25T00:25:47;13.40;;;4.35;;
52564;SDS011;38460;53.106;7.004;2023-04-25T00:28:14;18.35;;;4.70;;
52564;SDS011;38460;53.106;7.004;2023-04-25T00:30:40;11.85;;;4.47;;
52564;SDS011;38460;53.106;7.004;2023-04-25T00:44:00;12.57;;;4.10;;
52564;SDS011;38460;53.106;7.004;2023-04-25T00:46:27;13.18;;;5.30;;
52564;SDS011;38460;53.106;7.004;2023-04-25T00:48:53;12.73;;;4.60;;
52564;SDS011;38460;53.106;7.004;2023-04-25T00:51:21;14.70;;;4.57;;
52564;SDS011;38460;53.106;7.004;2023-04-25T00:53:48;14.18;;;4.65;;
52564;SDS011;38460;53.106;7.004;2023-04-25T00:56:15;14.95;;;3.58;;
52564;SDS011;38460;53.106;7.004;2023-04-25T00:58:41;12.93;;;4.10;;
52564;SDS011;38460;53.106;7.004;2023-04-25T01:01:08;15.20;;;4.63;;
52564;SDS011;38460;53.106;7.004;2023-04-25T01:03:35;12.70;;;4.78;;
52564;SDS011;38460;53.106;7.004;2023-04-25T01:06:07;11.80;;;3.63;;
52564;SDS011;38460;53.106;7.004;2023-04-25T01:08:34;12.85;;;3.85;;
52564;SDS011;38460;53.106;7.004;2023-04-25T01:11:00;10.07;;;4.07;;
52564;SDS011;38460;53.106;7.004;2023-04-25T01:13:26;16.30;;;4.13;;
52564;SDS011;38460;53.106;7.004;2023-04-25T01:15:52;9.77;;;3.95;;
52564;SDS011;38460;53.106;7.004;2023-04-25T01:18:18;8.43;;;3.70;;
52564;SDS011;38460;53.106;7.004;2023-04-25T01:20:45;11.82;;;3.33;;
52564;SDS011;38460;53.106;7.004;2023-04-25T01:23:12;10.77;;;3.53;;
52564;SDS011;38460;53.106;7.004;2023-04-25T01:25:39;10.02;;;3.60;;
52564;SDS011;38460;53.106;7.004;2023-04-25T01:28:05;15.02;;;3.88;;
52564;SDS011;38460;53.106;7.004;2023-04-25T01:30:31;15.07;;;3.40;;
52564;SDS011;38460;53.106;7.004;2023-04-25T01:32:57;7.68;;;2.75;;
52564;SDS011;38460;53.106;7.004;2023-04-25T01:35:24;9.32;;;3.38;;
52564;SDS011;38460;53.106;7.004;2023-04-25T01:37:50;9.52;;;2.85;;
52564;SDS011;38460;53.106;7.004;2023-04-25T01:40:16;10.60;;;3.13;;
52564;SDS011;38460;53.106;7.004;2023-04-25T01:42:44;18.88;;;3.90;;
52564;SDS011;38460;53.106;7.004;2023-04-25T01:45:10;11.73;;;2.65;;
52564;SDS011;38460;53.106;7.004;2023-04-25T01:47:37;11.38;;;4.28;;
52564;SDS011;38460;53.106;7.004;2023-04-25T01:50:05;7.07;;;2.92;;
52564;SDS011;38460;53.106;7.004;2023-04-25T01:52:32;10.98;;;3.00;;
52564;SDS011;38460;53.106;7.004;2023-04-25T01:55:01;10.68;;;4.05;;
52564;SDS011;38460;53.106;7.004;2023-04-25T01:57:27;13.77;;;3.20;;
52564;SDS011;38460;53.106;7.004;2023-04-25T02:00:01;9.63;;;3.55;;
52564;SDS011;38460;53.106;7.004;2023-04-25T02:02:29;6.70;;;2.90;;
52564;SDS011;38460;53.106;7.004;2023-04-25T02:04:54;13.77;;;3.28;;
52564;SDS011;38460;53.106;7.004;2023-04-25T02:07:21;10.27;;;3.55;;
52564;SDS011;38460;53.106;7.004;2023-04-25T02:09:47;10.30;;;3.30;;
52564;SDS011;38460;53.106;7.004;2023-04-25T02:12:13;8.23;;;3.17;;
52564;SDS011;38460;53.106;7.004;2023-04-25T02:14:39;14.38;;;3.08;;
52564;SDS011;38460;53.106;7.004;2023-04-25T02:17:05;11.65;;;3.13;;
52564;SDS011;38460;53.106;7.004;2023-04-25T02:19:30;13.65;;;2.75;;
52564;SDS011;38460;53.106;7.004;2023-04-25T02:21:57;8.27;;;3.55;;
52564;SDS011;38460;53.106;7.004;2023-04-25T02:24:23;13.50;;;3.47;;
52564;SDS011;38460;53.106;7.004;2023-04-25T02:26:49;12.63;;;2.85;;
52564;SDS011;38460;53.106;7.004;2023-04-25T02:29:15;8.52;;;2.67;;
52564;SDS011;38460;53.106;7.004;2023-04-25T02:31:41;15.27;;;3.42;;
52564;SDS011;38460;53.106;7.004;2023-04-25T02:34:07;9.23;;;3.50;;
52564;SDS011;38460;53.106;7.004;2023-04-25T02:36:32;12.52;;;3.90;;
52564;SDS011;38460;53.106;7.004;2023-04-25T02:39:00;10.82;;;3.33;;
52564;SDS011;38460;53.106;7.004;2023-04-25T02:41:26;12.07;;;2.70;;
52564;SDS011;38460;53.106;7.004;2023-04-25T02:43:52;12.30;;;2.95;;
52564;SDS011;38460;53.106;7.004;2023-04-25T02:46:18;10.57;;;3.40;;
52564;SDS011;38460;53.106;7.004;2023-04-25T02:48:43;8.95;;;3.65;;
52564;SDS011;38460;53.106;7.004;2023-04-25T02:51:09;14.02;;;3.50;;
52564;SDS011;38460;53.106;7.004;2023-04-25T02:53:35;10.27;;;3.20;;
52564;SDS011;38460;53.106;7.004;2023-04-25T02:56:01;10.25;;;3.08;;
52564;SDS011;38460;53.106;7.004;2023-04-25T02:58:26;13.43;;;3.40;;
52564;SDS011;38460;53.106;7.004;2023-04-25T03:00:52;12.90;;;3.47;;
52564;SDS011;38460;53.106;7.004;2023-04-25T03:03:19;12.77;;;3.47;;
52564;SDS011;38460;53.106;7.004;2023-04-25T03:05:47;12.23;;;3.15;;
52564;SDS011;38460;53.106;7.004;2023-04-25T03:11:54;8.80;;;2.97;;
52564;SDS011;38460;53.106;7.004;2023-04-25T03:14:20;9.43;;;3.10;;
52564;SDS011;38460;53.106;7.004;2023-04-25T03:16:46;9.23;;;2.53;;
52564;SDS011;38460;53.106;7.004;2023-04-25T03:31:04;7.82;;;2.55;;
52564;SDS011;38460;53.106;7.004;2023-04-25T03:33:30;11.80;;;3.03;;
52564;SDS011;38460;53.106;7.004;2023-04-25T03:35:56;10.77;;;2.45;;
52564;SDS011;38460;53.106;7.004;2023-04-25T03:38:22;10.93;;;3.00;;
52564;SDS011;38460;53.106;7.004;2023-04-25T03:40:48;6.70;;;2.42;;
52564;SDS011;38460;53.106;7.004;2023-04-25T03:43:15;10.18;;;2.38;;
52564;SDS011;38460;53.106;7.004;2023-04-25T03:45:41;10.20;;;3.15;;
52564;SDS011;38460;53.106;7.004;2023-04-25T03:48:07;8.63;;;2.35;;
52564;SDS011;38460;53.106;7.004;2023-04-25T03:50:33;7.43;;;2.20;;
52564;SDS011;38460;53.106;7.004;2023-04-25T03:52:59;8.13;;;2.15;;
52564;SDS011;38460;53.106;7.004;2023-04-25T03:55:25;7.00;;;2.35;;
52564;SDS011;38460;53.106;7.004;2023-04-25T03:57:50;7.03;;;2.78;;
52564;SDS011;38460;53.106;7.004;2023-04-25T04:00:16;7.75;;;2.35;;
52564;SDS011;38460;53.106;7.004;2023-04-25T04:02:42;8.15;;;2.63;;
52564;SDS011;38460;53.106;7.004;2023-04-25T04:05:08;10.18;;;3.60;;
52564;SDS011;38460;53.106;7.004;2023-04-25T04:07:34;12.57;;;3.05;;
52564;SDS011;38460;53.106;7.004;2023-04-25T04:10:05;11.98;;;2.45;;
52564;SDS011;38460;53.106;7.004;2023-04-25T04:12:32;6.45;;;2.33;;
52564;SDS011;38460;53.106;7.004;2023-04-25T04:14:58;8.00;;;2.72;;
52564;SDS011;38460;53.106;7.004;2023-04-25T04:17:24;7.78;;;2.25;;
52564;SDS011;38460;53.106;7.004;2023-04-25T04:19:50;6.60;;;2.22;;
52564;SDS011;38460;53.106;7.004;2023-04-25T04:22:16;5.88;;;2.13;;
52564;SDS011;38460;53.106;7.004;2023-04-25T04:24:41;10.52;;;3.90;;
52564;SDS011;38460;53.106;7.004;2023-04-25T04:27:11;12.82;;;3.28;;
52564;SDS011;38460;53.106;7.004;2023-04-25T04:29:38;11.05;;;2.92;;
52564;SDS011;38460;53.106;7.004;2023-04-25T04:32:04;9.45;;;2.83;;
52564;SDS011;38460;53.106;7.004;2023-04-25T04:34:30;11.52;;;2.53;;
52564;SDS011;38460;53.106;7.004;2023-04-25T04:36:56;11.57;;;3.17;;
52564;SDS011;38460;53.106;7.004;2023-04-25T04:39:22;8.55;;;2.95;;
52564;SDS011;38460;53.106;7.004;2023-04-25T04:41:48;11.00;;;2.95;;
52564;SDS011;38460;53.106;7.004;2023-04-25T04:44:14;8.32;;;2.47;;
52564;SDS011;38460;53.106;7.004;2023-04-25T04:46:40;10.13;;;3.03;;
52564;SDS011;38460;53.106;7.004;2023-04-25T04:49:10;8.57;;;2.40;;
52564;SDS011;38460;53.106;7.004;2023-04-25T04:51:37;4.40;;;2.00;;
52564;SDS011;38460;53.106;7.004;2023-04-25T04:54:03;7.15;;;2.78;;
52564;SDS011;38460;53.106;7.004;2023-04-25T04:56:29;9.25;;;2.38;;
52564;SDS011;38460;53.106;7.004;2023-04-25T04:58:56;10.32;;;2.47;;
52564;SDS011;38460;53.106;7.004;2023-04-25T05:01:22;9.10;;;2.05;;
52564;SDS011;38460;53.106;7.004;2023-04-25T05:03:48;5.10;;;2.28;;
52564;SDS011;38460;53.106;7.004;2023-04-25T05:06:15;10.20;;;2.45;;
52564;SDS011;38460;53.106;7.004;2023-04-25T05:08:41;13.80;;;3.70;;
52564;SDS011;38460;53.106;7.004;2023-04-25T05:11:07;11.35;;;3.05;;
52564;SDS011;38460;53.106;7.004;2023-04-25T05:13:33;8.23;;;2.55;;
52564;SDS011;38460;53.106;7.004;2023-04-25T05:15:58;8.52;;;2.85;;
52564;SDS011;38460;53.106;7.004;2023-04-25T05:18:24;9.18;;;2.75;;
52564;SDS011;38460;53.106;7.004;2023-04-25T05:20:50;8.43;;;2.33;;
52564;SDS011;38460;53.106;7.004;2023-04-25T05:23:15;7.97;;;2.47;;
52564;SDS011;38460;53.106;7.004;2023-04-25T05:25:41;9.48;;;2.58;;
52564;SDS011;38460;53.106;7.004;2023-04-25T05:28:07;8.68;;;2.53;;
52564;SDS011;38460;53.106;7.004;2023-04-25T05:30:33;6.20;;;2.38;;
52564;SDS011;38460;53.106;7.004;2023-04-25T05:32:59;5.95;;;2.75;;
52564;SDS011;38460;53.106;7.004;2023-04-25T05:35:26;4.90;;;2.17;;
52564;SDS011;38460;53.106;7.004;2023-04-25T05:37:52;8.57;;;2.20;;
52564;SDS011;38460;53.106;7.004;2023-04-25T05:40:18;6.45;;;2.58;;
52564;SDS011;38460;53.106;7.004;2023-04-25T05:42:43;9.90;;;2.40;;
52564;SDS011;38460;53.106;7.004;2023-04-25T05:45:09;11.07;;;3.78;;
52564;SDS011;38460;53.106;7.004;2023-04-25T05:47:35;6.10;;;2.08;;
52564;SDS011;38460;53.106;7.004;2023-04-25T05:50:01;7.00;;;2.67;;
52564;SDS011;38460;53.106;7.004;2023-04-25T05:52:27;8.18;;;2.55;;
52564;SDS011;38460;53.106;7.004;2023-04-25T05:54:52;9.00;;;2.72;;
52564;SDS011;38460;53.106;7.004;2023-04-25T05:57:25;10.30;;;2.72;;
52564;SDS011;38460;53.106;7.004;2023-04-25T05:59:52;11.10;;;2.67;;
52564;SDS011;38460;53.106;7.004;2023-04-25T06:02:18;8.68;;;2.90;;
52564;SDS011;38460;53.106;7.004;2023-04-25T06:04:45;6.47;;;2.47;;
52564;SDS011;38460;53.106;7.004;2023-04-25T06:07:11;9.30;;;2.85;;
52564;SDS011;38460;53.106;7.004;2023-04-25T06:09:38;8.18;;;3.15;;
52564;SDS011;38460;53.106;7.004;2023-04-25T06:12:05;7.03;;;1.90;;
52564;SDS011;38460;53.106;7.004;2023-04-25T06:14:31;7.63;;;2.38;;
52564;SDS011;38460;53.106;7.004;2023-04-25T06:16:57;7.90;;;2.42;;
52564;SDS011;38460;53.106;7.004;2023-04-25T06:19:23;6.22;;;2.25;;
52564;SDS011;38460;53.106;7.004;2023-04-25T06:21:48;5.05;;;2.15;;
52564;SDS011;38460;53.106;7.004;2023-04-25T06:24:14;5.55;;;1.85;;
52564;SDS011;38460;53.106;7.004;2023-04-25T06:26:40;7.07;;;2.33;;
52564;SDS011;38460;53.106;7.004;2023-04-25T06:29:05;6.45;;;2.15;;
52564;SDS011;38460;53.106;7.004;2023-04-25T06:31:31;8.13;;;2.00;;
52564;SDS011;38460;53.106;7.004;2023-04-25T06:33:58;6.07;;;2.00;;
52564;SDS011;38460;53.106;7.004;2023-04-25T06:36:24;5.90;;;2.33;;
52564;SDS011;38460;53.106;7.004;2023-04-25T06:38:52;8.15;;;2.30;;
52564;SDS011;38460;53.106;7.004;2023-04-25T06:41:19;5.35;;;1.77;;
52564;SDS011;38460;53.106;7.004;2023-04-25T06:43:45;4.10;;;1.60;;
52564;SDS011;38460;53.106;7.004;2023-04-25T06:46:11;4.47;;;1.33;;
52564;SDS011;38460;53.106;7.004;2023-04-25T06:48:37;6.28;;;1.83;;
52564;SDS011;38460;53.106;7.004;2023-04-25T06:51:03;5.57;;;2.17;;
52564;SDS011;38460;53.106;7.004;2023-04-25T06:53:29;3.97;;;1.60;;
52564;SDS011;38460;53.106;7.004;2023-04-25T06:55:55;4.43;;;1.50;;
52564;SDS011;38460;53.106;7.004;2023-04-25T06:58:20;6.80;;;1.77;;
52564;SDS011;38460;53.106;7.004;2023-04-25T07:00:46;2.90;;;1.70;;
52564;SDS011;38460;53.106;7.004;2023-04-25T07:03:12;4.05;;;1.70;;
52564;SDS011;38460;53.106;7.004;2023-04-25T07:05:38;6.03;;;1.90;;
52564;SDS011;38460;53.106;7.004;2023-04-25T07:08:03;6.68;;;1.58;;
52564;SDS011;38460;53.106;7.004;2023-04-25T07:10:29;9.38;;;1.80;;
52564;SDS011;38460;53.106;7.004;2023-04-25T07:12:55;9.20;;;1.92;;
52564;SDS011;38460;53.106;7.004;2023-04-25T07:15:21;4.57;;;1.80;;
52564;SDS011;38460;53.106;7.004;2023-04-25T07:17:47;6.60;;;2.50;;
52564;SDS011;38460;53.106;7.004;2023-04-25T07:20:12;6.10;;;2.22;;
52564;SDS011;38460;53.106;7.004;2023-04-25T07:22:38;9.98;;;2.17;;
52564;SDS011;38460;53.106;7.004;2023-04-25T07:25:04;6.13;;;1.80;;
52564;SDS011;38460;53.106;7.004;2023-04-25T07:27:33;9.70;;;2.13;;
52564;SDS011;38460;53.106;7.004;2023-04-25T07:29:59;7.78;;;2.22;;
52564;SDS011;38460;53.106;7.004;2023-04-25T07:32:25;9.35;;;2.42;;
52564;SDS011;38460;53.106;7.004;2023-04-25T07:34:51;6.35;;;1.55;;
52564;SDS011;38460;53.106;7.004;2023-04-25T07:37:17;6.25;;;1.80;;
52564;SDS011;38460;53.106;7.004;2023-04-25T07:39:44;6.32;;;1.48;;
52564;SDS011;38460;53.106;7.004;2023-04-25T07:42:11;7.05;;;1.58;;
52564;SDS011;38460;53.106;7.004;2023-04-25T07:44:37;3.90;;;1.75;;
52564;SDS011;38460;53.106;7.004;2023-04-25T07:47:06;5.28;;;1.83;;
52564;SDS011;38460;53.106;7.004;2023-04-25T07:49:33;4.25;;;1.45;;
52564;SDS011;38460;53.106;7.004;2023-04-25T07:51:59;5.22;;;1.60;;
52564;SDS011;38460;53.106;7.004;2023-04-25T07:54:25;6.30;;;1.63;;
52564;SDS011;38460;53.106;7.004;2023-04-25T07:56:51;6.22;;;1.70;;
52564;SDS011;38460;53.106;7.004;2023-04-25T07:59:17;5.30;;;1.90;;
52564;SDS011;38460;53.106;7.004;2023-04-25T08:01:43;7.65;;;1.70;;
52564;SDS011;38460;53.106;7.004;2023-04-25T08:04:08;7.18;;;1.77;;
52564;SDS011;38460;53.106;7.004;2023-04-25T08:06:34;6.95;;;2.10;;
52564;SDS011;38460;53.106;7.004;2023-04-25T08:09:01;6.05;;;2.13;;
52564;SDS011;38460;53.106;7.004;2023-04-25T08:11:28;5.78;;;1.83;;
52564;SDS011;38460;53.106;7.004;2023-04-25T08:13:54;4.70;;;1.83;;
52564;SDS011;38460;53.106;7.004;2023-04-25T08:16:19;6.25;;;1.70;;
52564;SDS011;38460;53.106;7.004;2023-04-25T08:18:45;6.40;;;1.55;;
52564;SDS011;38460;53.106;7.004;2023-04-25T08:21:11;6.28;;;2.22;;
52564;SDS011;38460;53.106;7.004;2023-04-25T08:23:37;5.15;;;1.60;;
52564;SDS011;38460;53.106;7.004;2023-04-25T08:26:03;7.43;;;1.50;;
52564;SDS011;38460;53.106;7.004;2023-04-25T08:28:30;5.93;;;1.60;;
52564;SDS011;38460;53.106;7.004;2023-04-25T08:30:56;5.30;;;1.50;;
52564;SDS011;38460;53.106;7.004;2023-04-25T08:33:22;7.30;;;2.03;;
52564;SDS011;38460;53.106;7.004;2023-04-25T08:35:48;5.43;;;1.73;;
52564;SDS011;38460;53.106;7.004;2023-04-25T08:38:14;3.80;;;1.60;;
52564;SDS011;38460;53.106;7.004;2023-04-25T08:40:40;8.48;;;1.60;;
52564;SDS011;38460;53.106;7.004;2023-04-25T08:43:08;6.50;;;1.80;;
52564;SDS011;38460;53.106;7.004;2023-04-25T08:45:41;10.18;;;1.80;;
52564;SDS011;38460;53.106;7.004;2023-04-25T08:48:07;6.95;;;1.80;;
52564;SDS011;38460;53.106;7.004;2023-04-25T08:50:38;8.70;;;1.45;;
52564;SDS011;38460;53.106;7.004;2023-04-25T08:53:08;4.95;;;1.50;;
52564;SDS011;38460;53.106;7.004;2023-04-25T08:55:41;1.65;;;1.00;;
52564;SDS011;38460;53.106;7.004;2023-04-25T08:58:07;2.42;;;0.85;;
52564;SDS011;38460;53.106;7.004;2023-04-25T09:00:35;4.25;;;1.55;;
52564;SDS011;38460;53.106;7.004;2023-04-25T09:03:01;2.10;;;1.00;;
52564;SDS011;38460;53.106;7.004;2023-04-25T09:05:28;1.75;;;1.02;;
52564;SDS011;38460;53.106;7.004;2023-04-25T09:07:54;3.80;;;1.30;;
52564;SDS011;38460;53.106;7.004;2023-04-25T09:10:21;3.08;;;1.05;;
52564;SDS011;38460;53.106;7.004;2023-04-25T09:13:06;1.58;;;0.80;;
52564;SDS011;38460;53.106;7.004;2023-04-25T09:15:46;2.63;;;0.90;;
52564;SDS011;38460;53.106;7.004;2023-04-25T09:18:13;5.80;;;1.13;;
52564;SDS011;38460;53.106;7.004;2023-04-25T09:20:46;3.38;;;1.00;;
52564;SDS011;38460;53.106;7.004;2023-04-25T09:23:14;2.60;;;0.90;;
52564;SDS011;38460;53.106;7.004;2023-04-25T09:25:40;3.72;;;1.10;;
52564;SDS011;38460;53.106;7.004;2023-04-25T09:28:08;3.13;;;1.30;;
52564;SDS011;38460;53.106;7.004;2023-04-25T09:30:34;2.47;;;0.90;;
52564;SDS011;38460;53.106;7.004;2023-04-25T09:33:04;3.00;;;1.10;;
52564;SDS011;38460;53.106;7.004;2023-04-25T09:35:34;6.70;;;1.55;;
52564;SDS011;38460;53.106;7.004;2023-04-25T09:38:06;4.28;;;1.33;;
52564;SDS011;38460;53.106;7.004;2023-04-25T09:40:44;5.57;;;1.40;;
52564;SDS011;38460;53.106;7.004;2023-04-25T09:43:32;5.28;;;2.13;;
52564;SDS011;38460;53.106;7.004;2023-04-25T09:45:56;8.30;;;1.90;;
52564;SDS011;38460;53.106;7.004;2023-04-25T09:48:25;5.95;;;1.70;;
52564;SDS011;38460;53.106;7.004;2023-04-25T09:51:11;11.40;;;2.63;;
52564;SDS011;38460;53.106;7.004;2023-04-25T09:53:41;5.10;;;1.42;;
52564;SDS011;38460;53.106;7.004;2023-04-25T09:56:09;5.93;;;1.50;;
52564;SDS011;38460;53.106;7.004;2023-04-25T09:58:37;5.53;;;2.08;;
52564;SDS011;38460;53.106;7.004;2023-04-25T10:01:04;6.22;;;2.20;;
52564;SDS011;38460;53.106;7.004;2023-04-25T10:03:33;6.78;;;1.83;;
52564;SDS011;38460;53.106;7.004;2023-04-25T10:06:01;6.00;;;1.42;;
52564;SDS011;38460;53.106;7.004;2023-04-25T10:08:33;8.95;;;1.85;;
52564;SDS011;38460;53.106;7.004;2023-04-25T10:11:04;6.18;;;1.85;;
52564;SDS011;38460;53.106;7.004;2023-04-25T10:13:31;2.40;;;1.30;;
52564;SDS011;38460;53.106;7.004;2023-04-25T10:16:01;5.63;;;1.63;;
52564;SDS011;38460;53.106;7.004;2023-04-25T10:18:28;4.28;;;1.55;;
52564;SDS011;38460;53.106;7.004;2023-04-25T10:20:55;3.97;;;1.33;;
52564;SDS011;38460;53.106;7.004;2023-04-25T10:23:22;8.13;;;1.63;;
52564;SDS011;38460;53.106;7.004;2023-04-25T10:25:49;7.30;;;2.13;;
52564;SDS011;38460;53.106;7.004;2023-04-25T10:28:16;4.63;;;1.60;;
52564;SDS011;38460;53.106;7.004;2023-04-25T10:30:58;5.97;;;1.70;;
52564;SDS011;38460;53.106;7.004;2023-04-25T10:33:34;5.40;;;2.03;;
52564;SDS011;38460;53.106;7.004;2023-04-25T10:38:58;8.18;;;2.00;;
52564;SDS011;38460;53.106;7.004;2023-04-25T10:42:08;6.28;;;1.35;;
52564;SDS011;38460;53.106;7.004;2023-04-25T10:44:27;4.93;;;1.67;;
52564;SDS011;38460;53.106;7.004;2023-04-25T10:46:58;4.18;;;1.30;;
52564;SDS011;38460;53.106;7.004;2023-04-25T10:49:33;7.22;;;1.20;;
52564;SDS011;38460;53.106;7.004;2023-04-25T10:54:54;6.20;;;1.67;;
52564;SDS011;38460;53.106;7.004;2023-04-25T10:57:27;3.30;;;1.08;;
52564;SDS011;38460;53.106;7.004;2023-04-25T11:07:59;3.22;;;1.23;;
52564;SDS011;38460;53.106;7.004;2023-04-25T11:10:30;4.35;;;1.38;;
52564;SDS011;38460;53.106;7.004;2023-04-25T11:12:59;6.28;;;1.50;;
52564;SDS011;38460;53.106;7.004;2023-04-25T11:15:26;5.50;;;1.70;;
52564;SDS011;38460;53.106;7.004;2023-04-25T11:17:52;5.60;;;1.17;;
52564;SDS011;38460;53.106;7.004;2023-04-25T11:20:19;3.30;;;2.20;;
52564;SDS011;38460;53.106;7.004;2023-04-25T11:22:46;6.07;;;1.40;;
52564;SDS011;38460;53.106;7.004;2023-04-25T11:25:13;3.30;;;1.50;;
52564;SDS011;38460;53.106;7.004;2023-04-25T11:27:50;6.43;;;2.15;;
52564;SDS011;38460;53.106;7.004;2023-04-25T11:30:16;5.18;;;1.63;;
52564;SDS011;38460;53.106;7.004;2023-04-25T11:32:43;5.63;;;1.60;;
52564;SDS011;38460;53.106;7.004;2023-04-25T11:35:09;5.82;;;1.35;;
52564;SDS011;38460;53.106;7.004;2023-04-25T11:37:36;4.15;;;1.48;;
52564;SDS011;38460;53.106;7.004;2023-04-25T11:40:03;5.03;;;1.40;;
52564;SDS011;38460;53.106;7.004;2023-04-25T11:42:31;5.13;;;1.60;;
52564;SDS011;38460;53.106;7.004;2023-04-25T11:44:58;4.70;;;1.23;;
52564;SDS011;38460;53.106;7.004;2023-04-25T11:47:29;3.00;;;2.08;;
52564;SDS011;38460;53.106;7.004;2023-04-25T11:49:59;5.57;;;1.88;;
52564;SDS011;38460;53.106;7.004;2023-04-25T11:52:41;5.18;;;1.75;;
52564;SDS011;38460;53.106;7.004;2023-04-25T11:55:09;5.20;;;2.08;;
52564;SDS011;38460;53.106;7.004;2023-04-25T11:57:42;6.18;;;2.38;;
52564;SDS011;38460;53.106;7.004;2023-04-25T12:00:16;5.65;;;1.58;;
52564;SDS011;38460;53.106;7.004;2023-04-25T12:02:44;7.15;;;1.95;;
52564;SDS011;38460;53.106;7.004;2023-04-25T12:05:11;5.22;;;1.63;;
52564;SDS011;38460;53.106;7.004;2023-04-25T12:07:37;5.97;;;1.80;;
52564;SDS011;38460;53.106;7.004;2023-04-25T12:10:04;3.42;;;1.42;;
52564;SDS011;38460;53.106;7.004;2023-04-25T12:12:34;2.42;;;1.20;;
52564;SDS011;38460;53.106;7.004;2023-04-25T12:15:14;3.45;;;1.15;;
52564;SDS011;38460;53.106;7.004;2023-04-25T12:17:44;3.80;;;1.40;;
52564;SDS011;38460;53.106;7.004;2023-04-25T12:20:15;5.22;;;1.92;;
52564;SDS011;38460;53.106;7.004;2023-04-25T12:22:44;5.82;;;1.73;;
52564;SDS011;38460;53.106;7.004;2023-04-25T12:28:20;3.05;;;1.33;;
52564;SDS011;38460;53.106;7.004;2023-04-25T12:33:34;5.30;;;1.63;;
52564;SDS011;38460;53.106;7.004;2023-04-25T12:36:02;6.03;;;1.77;;
52564;SDS011;38460;53.106;7.004;2023-04-25T12:38:35;4.97;;;1.90;;
52564;SDS011;38460;53.106;7.004;2023-04-25T12:41:02;6.63;;;1.88;;
52564;SDS011;38460;53.106;7.004;2023-04-25T12:43:28;3.88;;;1.10;;
52564;SDS011;38460;53.106;7.004;2023-04-25T12:45:54;4.70;;;1.70;;
52564;SDS011;38460;53.106;7.004;2023-04-25T12:48:20;6.55;;;1.40;;
52564;SDS011;38460;53.106;7.004;2023-04-25T12:50:47;3.45;;;1.25;;
52564;SDS011;38460;53.106;7.004;2023-04-25T12:53:15;5.13;;;1.20;;
52564;SDS011;38460;53.106;7.004;2023-04-25T12:55:41;5.32;;;2.00;;
52564;SDS011;38460;53.106;7.004;2023-04-25T12:58:08;4.85;;;1.42;;
52564;SDS011;38460;53.106;7.004;2023-04-25T13:00:34;5.68;;;1.40;;
52564;SDS011;38460;53.106;7.004;2023-04-25T13:02:59;6.72;;;1.77;;
52564;SDS011;38460;53.106;7.004;2023-04-25T13:05:25;6.15;;;1.55;;
52564;SDS011;38460;53.106;7.004;2023-04-25T13:07:51;3.70;;;1.45;;
52564;SDS011;38460;53.106;7.004;2023-04-25T13:10:17;5.47;;;1.73;;
52564;SDS011;38460;53.106;7.004;2023-04-25T13:12:43;5.50;;;1.58;;
52564;SDS011;38460;53.106;7.004;2023-04-25T13:15:09;12.10;;;1.70;;
52564;SDS011;38460;53.106;7.004;2023-04-25T13:17:37;5.40;;;1.50;;
52564;SDS011;38460;53.106;7.004;2023-04-25T13:20:04;4.63;;;1.30;;
52564;SDS011;38460;53.106;7.004;2023-04-25T13:22:34;7.13;;;1.60;;
52564;SDS011;38460;53.106;7.004;2023-04-25T13:25:03;6.60;;;1.63;;
52564;SDS011;38460;53.106;7.004;2023-04-25T13:27:30;6.72;;;1.83;;
52564;SDS011;38460;53.106;7.004;2023-04-25T13:29:59;7.90;;;2.00;;
52564;SDS011;38460;53.106;7.004;2023-04-25T13:32:26;4.97;;;1.25;;
52564;SDS011;38460;53.106;7.004;2023-04-25T13:34:52;5.45;;;1.60;;
52564;SDS011;38460;53.106;7.004;2023-04-25T13:37:18;8.00;;;1.40;;
52564;SDS011;38460;53.106;7.004;2023-04-25T13:39:44;4.75;;;1.63;;
52564;SDS011;38460;53.106;7.004;2023-04-25T13:42:09;4.30;;;1.50;;
52564;SDS011;38460;53.106;7.004;2023-04-25T13:44:36;5.03;;;1.33;;
52564;SDS011;38460;53.106;7.004;2023-04-25T13:47:02;4.10;;;2.22;;
52564;SDS011;38460;53.106;7.004;2023-04-25T13:49:28;3.17;;;1.25;;
52564;SDS011;38460;53.106;7.004;2023-04-25T13:51:54;6.35;;;1.30;;
52564;SDS011;38460;53.106;7.004;2023-04-25T13:54:20;3.00;;;1.08;;
52564;SDS011;38460;53.106;7.004;2023-04-25T13:56:45;6.38;;;1.23;;
52564;SDS011;38460;53.106;7.004;2023-04-25T13:59:11;3.28;;;1.40;;
52564;SDS011;38460;53.106;7.004;2023-04-25T14:01:37;6.32;;;2.25;;
52564;SDS011;38460;53.106;7.004;2023-04-25T14:04:03;6.53;;;1.90;;
52564;SDS011;38460;53.106;7.004;2023-04-25T14:06:30;4.38;;;1.50;;
52564;SDS011;38460;53.106;7.004;2023-04-25T14:08:57;9.43;;;1.85;;
52564;SDS011;38460;53.106;7.004;2023-04-25T14:11:22;5.43;;;1.48;;
52564;SDS011;38460;53.106;7.004;2023-04-25T14:13:48;5.47;;;1.70;;
52564;SDS011;38460;53.106;7.004;2023-04-25T14:16:15;7.10;;;2.20;;
52564;SDS011;38460;53.106;7.004;2023-04-25T14:18:41;4.80;;;1.92;;
52564;SDS011;38460;53.106;7.004;2023-04-25T14:21:07;4.65;;;1.90;;
52564;SDS011;38460;53.106;7.004;2023-04-25T14:23:34;3.58;;;1.58;;
52564;SDS011;38460;53.106;7.004;2023-04-25T14:26:00;5.90;;;1.10;;
52564;SDS011;38460;53.106;7.004;2023-04-25T14:28:26;4.05;;;1.33;;
52564;SDS011;38460;53.106;7.004;2023-04-25T14:30:51;5.70;;;1.40;;
52564;SDS011;38460;53.106;7.004;2023-04-25T14:33:17;4.70;;;1.55;;
52564;SDS011;38460;53.106;7.004;2023-04-25T14:35:43;3.08;;;1.17;;
52564;SDS011;38460;53.106;7.004;2023-04-25T14:38:09;2.97;;;1.20;;
52564;SDS011;38460;53.106;7.004;2023-04-25T14:40:35;3.20;;;1.20;;
52564;SDS011;38460;53.106;7.004;2023-04-25T14:43:01;4.68;;;1.25;;
52564;SDS011;38460;53.106;7.004;2023-04-25T14:45:27;6.13;;;1.30;;
52564;SDS011;38460;53.106;7.004;2023-04-25T14:47:53;11.85;;;1.63;;
52564;SDS011;38460;53.106;7.004;2023-04-25T14:50:19;6.93;;;2.38;;
52564;SDS011;38460;53.106;7.004;2023-04-25T14:52:45;8.70;;;1.75;;
52564;SDS011;38460;53.106;7.004;2023-04-25T14:55:10;6.68;;;1.92;;
52564;SDS011;38460;53.106;7.004;2023-04-25T14:57:37;7.30;;;2.22;;
52564;SDS011;38460;53.106;7.004;2023-04-25T15:00:04;5.03;;;2.03;;
52564;SDS011;38460;53.106;7.004;2023-04-25T15:02:34;4.80;;;1.65;;
52564;SDS011;38460;53.106;7.004;2023-04-25T15:05:00;7.53;;;1.67;;
52564;SDS011;38460;53.106;7.004;2023-04-25T15:07:26;6.85;;;1.63;;
52564;SDS011;38460;53.106;7.004;2023-04-25T15:09:52;7.30;;;1.73;;
52564;SDS011;38460;53.106;7.004;2023-04-25T15:12:18;3.20;;;1.45;;
52564;SDS011;38460;53.106;7.004;2023-04-25T15:14:45;4.97;;;2.03;;
52564;SDS011;38460;53.106;7.004;2023-04-25T15:17:11;5.75;;;1.77;;
52564;SDS011;38460;53.106;7.004;2023-04-25T15:19:39;7.25;;;1.60;;
52564;SDS011;38460;53.106;7.004;2023-04-25T15:22:05;5.03;;;1.40;;
52564;SDS011;38460;53.106;7.004;2023-04-25T15:24:32;19.73;;;3.40;;
52564;SDS011;38460;53.106;7.004;2023-04-25T15:26:58;13.32;;;2.58;;
52564;SDS011;38460;53.106;7.004;2023-04-25T15:29:23;5.13;;;1.60;;
52564;SDS011;38460;53.106;7.004;2023-04-25T15:31:51;7.18;;;1.60;;